createdAt,value
2023-02-14T00:01:53.353Z,22.03
2023-02-14T00:04:19.980Z,22.27
2023-02-14T00:06:46.825Z,22.80
2023-02-14T00:09:15.908Z,22.70
2023-02-14T00:11:42.709Z,23.27
2023-02-14T00:14:28.370Z,24.77
2023-02-14T00:16:54.909Z,23.73
2023-02-14T00:19:21.817Z,26.00
2023-02-14T00:21:48.839Z,24.47
2023-02-14T00:24:18.224Z,26.13
2023-02-14T00:26:45.446Z,25.37
2023-02-14T00:29:14.301Z,25.27
2023-02-14T00:31:41.568Z,24.77
2023-02-14T00:34:08.789Z,26.13
2023-02-14T00:36:35.928Z,25.17
2023-02-14T00:39:07.477Z,27.27
2023-02-14T00:41:34.273Z,26.50
2023-02-14T00:44:00.945Z,27.00
2023-02-14T00:46:27.972Z,25.30
2023-02-14T00:48:54.632Z,25.23
2023-02-14T00:51:21.812Z,27.67
2023-02-14T00:53:49.160Z,25.20
2023-02-14T00:56:16.192Z,25.80
2023-02-14T00:58:42.806Z,25.63
2023-02-14T01:01:09.553Z,27.73
2023-02-14T01:03:36.866Z,26.43
2023-02-14T01:06:04.388Z,27.47
2023-02-14T01:08:31.346Z,26.90
2023-02-14T01:10:58.130Z,26.17
2023-02-14T01:13:24.778Z,26.23
2023-02-14T01:15:51.875Z,24.67
2023-02-14T01:18:19.195Z,25.53
2023-02-14T01:20:45.915Z,27.27
2023-02-14T01:23:12.404Z,26.27
2023-02-14T01:25:39.975Z,27.03
2023-02-14T01:28:06.659Z,25.03
2023-02-14T01:30:33.283Z,27.90
2023-02-14T01:32:59.819Z,26.57
2023-02-14T01:35:26.312Z,26.70
2023-02-14T01:37:52.786Z,31.33
2023-02-14T01:40:19.493Z,27.57
2023-02-14T01:42:45.976Z,27.43
2023-02-14T01:45:19.269Z,31.20
2023-02-14T01:47:47.666Z,25.10
2023-02-14T01:50:30.596Z,29.47
2023-02-14T01:53:03.291Z,30.47
2023-02-14T01:55:33.114Z,26.23
2023-02-14T01:58:15.662Z,24.27
2023-02-14T02:00:58.296Z,23.57
2023-02-14T02:03:30.174Z,26.37
2023-02-14T02:06:01.740Z,24.87
2023-02-14T02:08:28.338Z,23.17
2023-02-14T02:10:54.843Z,25.20
2023-02-14T02:13:22.295Z,26.73
2023-02-14T02:15:57.198Z,25.23
2023-02-14T02:18:23.590Z,25.17
2023-02-14T02:21:30.560Z,28.30
2023-02-14T02:24:14.401Z,29.57
2023-02-14T02:26:54.415Z,27.27
2023-02-14T02:29:38.446Z,26.80
2023-02-14T02:32:32.833Z,25.90
2023-02-14T02:35:17.585Z,27.97
2023-02-14T02:37:56.133Z,25.57
2023-02-14T02:40:41.332Z,26.10
2023-02-14T02:43:37.206Z,27.13
2023-02-14T02:46:30.352Z,27.13
2023-02-14T02:49:08.308Z,28.27
2023-02-14T02:52:04.725Z,27.13
2023-02-14T02:54:53.998Z,27.10
2023-02-14T02:57:27.450Z,26.77
2023-02-14T02:59:55.370Z,28.87
2023-02-14T03:02:33.672Z,28.47
2023-02-14T03:05:02.431Z,29.60
2023-02-14T03:07:34.946Z,29.40
2023-02-14T03:10:09.548Z,29.57
2023-02-14T03:12:39.045Z,28.73
2023-02-14T03:15:35.879Z,28.37
2023-02-14T03:18:43.864Z,29.77
2023-02-14T03:21:25.329Z,32.47
2023-02-14T03:24:15.517Z,31.17
2023-02-14T03:27:03.228Z,29.97
2023-02-14T03:29:53.307Z,29.50
2023-02-14T03:32:39.430Z,31.80
2023-02-14T03:35:08.842Z,31.60
2023-02-14T03:37:41.611Z,30.47
2023-02-14T03:40:17.075Z,31.50
2023-02-14T03:42:51.398Z,32.40
2023-02-14T03:45:24.110Z,32.10
2023-02-14T03:47:50.967Z,34.03
2023-02-14T03:50:19.544Z,32.77
2023-02-14T03:52:49.806Z,35.97
2023-02-14T03:55:20.245Z,30.30
2023-02-14T03:57:56.031Z,31.67
2023-02-14T04:00:22.733Z,29.53
2023-02-14T04:02:55.897Z,30.87
2023-02-14T04:05:25.115Z,32.90
2023-02-14T04:07:54.824Z,30.80
2023-02-14T04:10:21.798Z,34.17
2023-02-14T04:12:48.793Z,34.60
2023-02-14T04:15:16.117Z,39.30
2023-02-14T04:18:01.268Z,32.40
2023-02-14T04:20:28.258Z,34.80
2023-02-14T04:22:55.162Z,36.33
2023-02-14T04:25:22.424Z,37.13
2023-02-14T04:27:49.134Z,36.13
2023-02-14T04:30:18.101Z,37.07
2023-02-14T04:33:08.414Z,34.50
2023-02-14T04:35:35.450Z,37.30
2023-02-14T04:38:03.353Z,36.77
2023-02-14T04:40:30.131Z,36.07
2023-02-14T04:42:57.237Z,36.07
2023-02-14T04:45:23.918Z,36.77
2023-02-14T04:47:50.392Z,35.40
2023-02-14T04:50:17.519Z,37.07
2023-02-14T04:52:44.043Z,36.13
2023-02-14T04:55:10.716Z,35.40
2023-02-14T04:57:37.281Z,38.10
2023-02-14T05:00:04.823Z,37.13
2023-02-14T05:02:31.280Z,33.53
2023-02-14T05:04:57.768Z,35.53
2023-02-14T05:07:24.215Z,34.73
2023-02-14T05:09:50.746Z,35.77
2023-02-14T05:12:17.290Z,34.10
2023-02-14T05:14:43.768Z,34.57
2023-02-14T05:17:10.264Z,38.03
2023-02-14T05:19:36.748Z,36.73
2023-02-14T05:22:03.214Z,37.63
2023-02-14T05:24:29.825Z,38.27
2023-02-14T05:26:56.284Z,34.00
2023-02-14T05:29:22.748Z,37.33
2023-02-14T05:31:49.426Z,35.63
2023-02-14T05:34:16.035Z,38.43
2023-02-14T05:36:42.766Z,37.87
2023-02-14T05:39:09.276Z,35.53
2023-02-14T05:41:35.714Z,37.73
2023-02-14T05:44:02.238Z,37.47
2023-02-14T05:46:28.789Z,38.63
2023-02-14T05:48:55.268Z,38.00
2023-02-14T05:51:21.716Z,33.47
2023-02-14T05:53:48.207Z,35.40
2023-02-14T05:56:14.704Z,34.60
2023-02-14T05:58:41.313Z,34.57
2023-02-14T06:01:07.850Z,35.37
2023-02-14T06:03:34.306Z,35.80
2023-02-14T06:06:00.814Z,35.50
2023-02-14T06:08:27.281Z,33.97
2023-02-14T06:10:53.867Z,33.43
2023-02-14T06:13:20.345Z,34.70
2023-02-14T06:15:46.833Z,36.67
2023-02-14T06:18:13.319Z,36.87
2023-02-14T06:20:39.812Z,37.40
2023-02-14T06:23:06.287Z,39.00
2023-02-14T06:25:32.931Z,35.70
2023-02-14T06:27:59.733Z,37.47
2023-02-14T06:30:26.757Z,34.77
2023-02-14T06:32:53.374Z,35.70
2023-02-14T06:35:19.862Z,37.77
2023-02-14T06:37:46.400Z,36.53
2023-02-14T06:40:13.796Z,37.20
2023-02-14T06:42:40.373Z,39.40
2023-02-14T06:45:07.313Z,37.87
2023-02-14T06:47:35.140Z,41.83
2023-02-14T06:50:04.318Z,38.30
2023-02-14T06:52:32.190Z,36.40
2023-02-14T06:54:58.676Z,37.00
2023-02-14T06:57:25.206Z,36.20
2023-02-14T06:59:51.691Z,38.23
2023-02-14T07:02:18.299Z,39.23
2023-02-14T07:04:44.827Z,39.93
2023-02-14T07:07:11.304Z,39.10
2023-02-14T07:09:37.866Z,39.53
2023-02-14T07:12:04.433Z,44.50
2023-02-14T07:14:30.904Z,38.33
2023-02-14T07:16:57.364Z,38.83
2023-02-14T07:19:23.795Z,39.43
2023-02-14T07:21:50.290Z,39.97
2023-02-14T07:24:16.720Z,35.47
2023-02-14T07:26:43.166Z,38.60
2023-02-14T07:29:09.714Z,36.93
2023-02-14T07:31:36.289Z,36.63
2023-02-14T07:34:02.921Z,39.27
2023-02-14T07:36:29.392Z,37.30
2023-02-14T07:38:56.671Z,40.97
2023-02-14T07:41:23.484Z,40.57
2023-02-14T07:43:49.955Z,42.03
2023-02-14T07:46:17.545Z,39.40
2023-02-14T07:48:44.360Z,40.13
2023-02-14T07:51:11.284Z,42.17
2023-02-14T07:53:38.014Z,48.20
2023-02-14T07:56:04.614Z,46.53
2023-02-14T07:58:31.080Z,55.47
2023-02-14T08:00:58.059Z,50.80
2023-02-14T08:03:24.748Z,42.00
2023-02-14T08:05:57.275Z,48.97
2023-02-14T08:08:29.922Z,47.17
2023-02-14T08:10:56.636Z,44.27
2023-02-14T08:13:23.158Z,42.97
2023-02-14T08:16:04.856Z,39.87
2023-02-14T08:18:41.970Z,40.00
2023-02-14T08:21:10.449Z,41.30
2023-02-14T08:23:37.909Z,43.33
2023-02-14T08:26:04.794Z,39.33
2023-02-14T08:28:33.165Z,41.93
2023-02-14T08:31:00.523Z,39.80
2023-02-14T08:33:27.254Z,38.23
2023-02-14T08:35:53.760Z,38.97
2023-02-14T08:38:20.256Z,39.17
2023-02-14T08:40:46.805Z,39.07
2023-02-14T08:43:13.769Z,38.90
2023-02-14T08:45:40.857Z,42.17
2023-02-14T08:48:12.192Z,38.50
2023-02-14T08:50:39.002Z,41.13
2023-02-14T08:53:10.553Z,38.93
2023-02-14T08:55:37.387Z,41.33
2023-02-14T08:58:04.519Z,44.40
2023-02-14T09:00:32.375Z,40.97
2023-02-14T09:02:59.180Z,41.00
2023-02-14T09:05:26.558Z,45.10
2023-02-14T09:07:55.916Z,50.23
2023-02-14T09:10:23.109Z,44.57
2023-02-14T09:12:49.666Z,41.13
2023-02-14T09:15:16.190Z,41.47
2023-02-14T09:17:42.660Z,41.83
2023-02-14T09:20:10.706Z,41.00
2023-02-14T09:22:37.329Z,42.40
2023-02-14T09:25:04.421Z,42.03
2023-02-14T09:27:31.014Z,40.37
2023-02-14T09:29:57.531Z,40.43
2023-02-14T09:32:25.273Z,40.13
2023-02-14T09:35:10.457Z,40.87
2023-02-14T09:37:36.960Z,42.63
2023-02-14T09:40:04.663Z,38.07
2023-02-14T09:42:37.428Z,39.40
2023-02-14T09:45:13.330Z,38.77
2023-02-14T09:48:15.181Z,40.07
2023-02-14T09:51:07.888Z,44.63
2023-02-14T09:53:44.670Z,38.27
2023-02-14T09:56:37.318Z,40.37
2023-02-14T09:59:27.542Z,43.07
2023-02-14T10:02:19.084Z,42.03
2023-02-14T10:04:59.030Z,41.93
2023-02-14T10:07:50.308Z,40.07
2023-02-14T10:10:25.693Z,39.13
2023-02-14T10:13:18.447Z,40.67
2023-02-14T10:15:47.450Z,43.20
2023-02-14T10:18:21.713Z,39.50
2023-02-14T10:20:52.452Z,39.40
2023-02-14T10:23:30.662Z,38.83
2023-02-14T10:26:03.049Z,39.97
2023-02-14T10:28:56.018Z,40.10
2023-02-14T10:31:44.070Z,37.93
2023-02-14T10:34:22.775Z,40.17
2023-02-14T10:36:52.365Z,44.00
2023-02-14T10:39:21.808Z,38.90
2023-02-14T10:42:39.880Z,38.97
2023-02-14T10:45:28.848Z,41.33
2023-02-14T10:48:04.898Z,38.27
2023-02-14T10:50:39.666Z,38.63
2023-02-14T10:53:27.865Z,36.03
2023-02-14T10:56:01.979Z,36.87
2023-02-14T10:58:32.733Z,37.60
2023-02-14T11:01:11.290Z,40.37
2023-02-14T11:03:43.883Z,35.60
2023-02-14T11:06:10.988Z,36.43
2023-02-14T11:08:41.234Z,36.13
2023-02-14T11:11:44.422Z,36.13
2023-02-14T11:14:33.368Z,34.47
2023-02-14T11:17:00.845Z,34.70
2023-02-14T11:19:36.908Z,32.97
2023-02-14T11:22:04.418Z,30.77
2023-02-14T11:24:42.236Z,32.63
2023-02-14T11:27:11.804Z,33.50
2023-02-14T11:29:41.219Z,33.43
2023-02-14T11:32:23.983Z,30.93
2023-02-14T11:35:03.242Z,29.83
2023-02-14T11:37:44.563Z,28.70
2023-02-14T11:40:27.356Z,32.80
2023-02-14T11:43:02.256Z,31.57
2023-02-14T11:45:39.826Z,30.43
2023-02-14T11:48:22.301Z,29.17
2023-02-14T11:51:06.169Z,32.83
2023-02-14T11:53:52.006Z,31.10
2023-02-14T11:56:20.419Z,33.27
2023-02-14T11:58:58.472Z,30.57
2023-02-14T12:01:28.175Z,30.73
2023-02-14T12:03:56.018Z,30.90
2023-02-14T12:06:27.545Z,31.33
2023-02-14T12:09:42.668Z,30.90
2023-02-14T12:12:21.727Z,32.03
2023-02-14T12:14:48.415Z,31.10
2023-02-14T12:17:35.865Z,30.80
2023-02-14T12:20:07.830Z,29.23
2023-02-14T12:22:40.414Z,31.83
2023-02-14T12:25:21.412Z,31.23
2023-02-14T12:27:51.427Z,32.03
2023-02-14T12:30:20.591Z,32.53
2023-02-14T12:32:56.725Z,31.73
2023-02-14T12:35:48.147Z,30.23
2023-02-14T12:38:45.496Z,30.43
2023-02-14T12:41:24.454Z,31.20
2023-02-14T12:43:53.777Z,32.30
2023-02-14T12:46:42.107Z,29.47
2023-02-14T12:49:30.475Z,33.53
2023-02-14T12:52:18.212Z,29.63
2023-02-14T12:55:14.061Z,30.23
2023-02-14T12:57:54.516Z,28.07
2023-02-14T13:00:39.330Z,29.10
2023-02-14T13:03:33.732Z,29.13
2023-02-14T13:06:33.792Z,26.97
2023-02-14T13:09:14.699Z,29.17
2023-02-14T13:11:56.340Z,26.60
2023-02-14T13:14:41.881Z,28.27
2023-02-14T13:17:34.749Z,27.43
2023-02-14T13:20:19.886Z,27.03
2023-02-14T13:22:47.196Z,28.30
2023-02-14T13:25:37.187Z,26.70
2023-02-14T13:28:11.668Z,28.33
2023-02-14T13:30:38.859Z,28.73
2023-02-14T13:33:19.632Z,26.53
2023-02-14T13:35:46.303Z,26.77
2023-02-14T13:38:14.645Z,29.30
2023-02-14T13:40:41.443Z,26.77
2023-02-14T13:43:07.944Z,26.27
2023-02-14T13:45:40.374Z,27.20
2023-02-14T13:48:29.327Z,26.47
2023-02-14T13:50:58.710Z,27.43
2023-02-14T13:53:48.110Z,26.70
2023-02-14T13:56:17.497Z,28.27
2023-02-14T13:58:55.306Z,26.47
2023-02-14T14:01:32.448Z,26.20
2023-02-14T14:04:05.641Z,26.20
2023-02-14T14:07:04.655Z,25.87
2023-02-14T14:09:40.601Z,28.57
2023-02-14T14:12:27.117Z,27.27
2023-02-14T14:15:20.492Z,26.70
2023-02-14T14:17:50.034Z,28.60
2023-02-14T14:20:16.492Z,25.20
2023-02-14T14:22:51.213Z,27.80
2023-02-14T14:25:39.028Z,34.63
2023-02-14T14:28:13.465Z,26.30
2023-02-14T14:30:44.712Z,25.90
2023-02-14T14:33:31.289Z,26.80
2023-02-14T14:36:06.089Z,26.20
2023-02-14T14:38:34.930Z,26.93
2023-02-14T14:41:02.277Z,26.60
2023-02-14T14:43:34.330Z,28.60
2023-02-14T14:46:02.966Z,26.50
2023-02-14T14:48:32.829Z,27.70
2023-02-14T14:50:59.842Z,27.80
2023-02-14T14:53:28.454Z,26.63
2023-02-14T14:55:55.678Z,27.27
2023-02-14T14:58:36.412Z,28.40
2023-02-14T15:01:04.784Z,27.43
2023-02-14T15:03:31.351Z,27.80
2023-02-14T15:06:09.336Z,27.87
2023-02-14T15:08:36.098Z,26.03
2023-02-14T15:11:38.560Z,27.53
2023-02-14T15:14:13.863Z,25.27
2023-02-14T15:16:49.642Z,27.77
2023-02-14T15:19:19.090Z,26.60
2023-02-14T15:21:46.022Z,26.90
2023-02-14T15:24:17.522Z,26.87
2023-02-14T15:26:46.119Z,27.63
2023-02-14T15:29:20.796Z,27.70
2023-02-14T15:31:48.803Z,27.80
2023-02-14T15:34:15.474Z,28.83
2023-02-14T15:36:52.201Z,25.97
2023-02-14T15:39:19.383Z,25.00
2023-02-14T15:41:46.261Z,27.40
2023-02-14T15:44:21.259Z,27.93
2023-02-14T15:46:48.202Z,26.83
2023-02-14T15:49:19.021Z,27.03
2023-02-14T15:51:47.816Z,27.17
2023-02-14T15:54:43.527Z,26.73
2023-02-14T15:57:21.121Z,27.97
2023-02-14T15:59:48.647Z,28.87
2023-02-14T16:02:40.366Z,27.40
2023-02-14T16:05:19.036Z,26.67
2023-02-14T16:07:55.822Z,28.50
2023-02-14T16:10:26.534Z,26.53
2023-02-14T16:12:57.430Z,27.93
2023-02-14T16:15:29.111Z,27.87
2023-02-14T16:17:55.813Z,32.00
2023-02-14T16:20:45.227Z,28.47
2023-02-14T16:23:29.076Z,29.93
2023-02-14T16:25:59.033Z,28.87
2023-02-14T16:28:29.679Z,29.97
2023-02-14T16:30:57.982Z,29.87
2023-02-14T16:33:31.088Z,30.93
2023-02-14T16:36:16.014Z,33.20
2023-02-14T16:38:44.439Z,30.53
2023-02-14T16:41:22.353Z,33.00
2023-02-14T16:43:49.661Z,32.30
2023-02-14T16:46:19.191Z,32.27
2023-02-14T16:48:46.771Z,33.43
2023-02-14T16:51:14.175Z,34.63
2023-02-14T16:53:42.298Z,33.70
2023-02-14T16:56:23.433Z,33.93
2023-02-14T16:58:49.945Z,36.30
2023-02-14T17:01:16.451Z,34.43
2023-02-14T17:03:43.547Z,36.63
2023-02-14T17:06:12.029Z,38.43
2023-02-14T17:08:39.534Z,39.93
2023-02-14T17:11:06.145Z,40.17
2023-02-14T17:13:33.812Z,37.93
2023-02-14T17:16:01.622Z,40.10
2023-02-14T17:18:29.923Z,38.30
2023-02-14T17:20:56.532Z,39.40
2023-02-14T17:23:24.414Z,38.57
2023-02-14T17:25:50.946Z,36.47
2023-02-14T17:28:17.431Z,40.17
2023-02-14T17:30:43.934Z,46.83
2023-02-14T17:33:10.495Z,53.47
2023-02-14T17:35:38.043Z,46.97
2023-02-14T17:38:04.777Z,45.60
2023-02-14T17:40:31.684Z,44.33
2023-02-14T17:42:58.177Z,45.27
2023-02-14T17:45:24.664Z,43.60
2023-02-14T17:47:51.135Z,42.33
2023-02-14T17:50:18.217Z,44.73
2023-02-14T17:52:45.024Z,41.83
2023-02-14T17:55:12.218Z,43.60
2023-02-14T17:57:40.897Z,42.63
2023-02-14T18:00:11.378Z,40.73
2023-02-14T18:02:38.543Z,39.13
2023-02-14T18:05:07.336Z,42.93
2023-02-14T18:07:33.915Z,43.37
2023-02-14T18:10:00.409Z,42.50
2023-02-14T18:12:27.949Z,42.70
2023-02-14T18:14:56.141Z,41.97
2023-02-14T18:17:23.169Z,44.23
2023-02-14T18:19:49.844Z,43.73
2023-02-14T18:22:16.343Z,41.67
2023-02-14T18:24:42.841Z,43.40
2023-02-14T18:27:09.332Z,48.03
2023-02-14T18:29:36.005Z,54.13
2023-02-14T18:32:03.810Z,49.33
2023-02-14T18:34:30.303Z,48.57
2023-02-14T18:36:57.282Z,45.03
2023-02-14T18:39:23.792Z,43.17
2023-02-14T18:41:50.307Z,49.17
2023-02-14T18:44:17.973Z,45.70
2023-02-14T18:46:44.724Z,48.67
2023-02-14T18:49:13.284Z,53.33
2023-02-14T18:51:39.854Z,49.40
2023-02-14T18:54:06.766Z,47.53
2023-02-14T18:56:36.230Z,45.83
2023-02-14T18:59:06.519Z,48.40
2023-02-14T19:01:37.173Z,49.13
2023-02-14T19:04:06.426Z,48.77
2023-02-14T19:06:34.083Z,46.37
2023-02-14T19:09:01.760Z,49.57
2023-02-14T19:11:33.883Z,55.23
2023-02-14T19:14:02.401Z,60.53
2023-02-14T19:16:31.749Z,54.50
2023-02-14T19:18:59.056Z,51.73
2023-02-14T19:21:27.971Z,52.17
2023-02-14T19:23:59.380Z,52.60
2023-02-14T19:26:32.950Z,51.53
2023-02-14T19:29:01.954Z,52.60
2023-02-14T19:31:29.625Z,54.50
2023-02-14T19:33:56.685Z,61.47
2023-02-14T19:36:23.486Z,56.90
2023-02-14T19:38:52.622Z,59.67
2023-02-14T19:41:22.664Z,53.43
2023-02-14T19:43:51.539Z,56.97
2023-02-14T19:46:19.932Z,57.20
2023-02-14T19:48:47.358Z,56.40
2023-02-14T19:51:15.276Z,56.10
2023-02-14T19:53:42.350Z,57.50
2023-02-14T19:56:08.887Z,60.27
2023-02-14T19:58:36.490Z,63.73
2023-02-14T20:01:03.440Z,61.63
2023-02-14T20:03:30.678Z,59.23
2023-02-14T20:05:57.773Z,59.33
2023-02-14T20:08:24.284Z,64.20
2023-02-14T20:10:50.745Z,60.00
2023-02-14T20:13:17.255Z,57.97
2023-02-14T20:15:46.738Z,62.10
2023-02-14T20:18:13.316Z,60.83
2023-02-14T20:21:04.160Z,60.47
2023-02-14T20:23:32.385Z,54.23
2023-02-14T20:25:58.836Z,61.10
2023-02-14T20:28:25.398Z,66.77
2023-02-14T20:30:51.972Z,71.50
2023-02-14T20:33:18.662Z,64.27
2023-02-14T20:35:45.131Z,62.67
2023-02-14T20:38:12.208Z,61.07
2023-02-14T20:40:39.478Z,58.50
2023-02-14T20:43:06.134Z,60.23
2023-02-14T20:45:33.024Z,58.13
2023-02-14T20:48:03.699Z,67.50
2023-02-14T20:50:31.128Z,59.43
2023-02-14T20:52:57.675Z,62.10
2023-02-14T20:55:26.975Z,57.07
2023-02-14T20:57:53.906Z,54.13
2023-02-14T21:00:20.516Z,59.37
2023-02-14T21:02:47.012Z,66.07
2023-02-14T21:05:18.365Z,60.40
2023-02-14T21:07:44.895Z,60.03
2023-02-14T21:10:11.375Z,64.73
2023-02-14T21:12:38.657Z,58.33
2023-02-14T21:15:06.992Z,66.40
2023-02-14T21:17:33.963Z,63.33
2023-02-14T21:20:00.472Z,62.80
2023-02-14T21:22:27.050Z,60.80
2023-02-14T21:24:53.486Z,67.37
2023-02-14T21:27:19.991Z,62.83
2023-02-14T21:29:46.544Z,73.63
2023-02-14T21:32:13.132Z,80.13
2023-02-14T21:34:39.848Z,81.70
2023-02-14T21:37:06.368Z,73.40
2023-02-14T21:39:35.771Z,68.10
2023-02-14T21:42:02.419Z,70.77
2023-02-14T21:44:47.600Z,69.23
2023-02-14T21:47:14.224Z,70.37
2023-02-14T21:49:59.359Z,68.10
2023-02-14T21:52:25.802Z,67.20
2023-02-14T21:54:52.531Z,59.80
2023-02-14T21:57:19.064Z,55.13
2023-02-14T21:59:45.572Z,55.80
2023-02-14T22:02:12.327Z,55.07
2023-02-14T22:04:38.866Z,58.80
2023-02-14T22:07:05.452Z,60.60
2023-02-14T22:09:31.942Z,56.70
2023-02-14T22:11:58.379Z,52.70
2023-02-14T22:14:25.427Z,47.87
2023-02-14T22:16:52.035Z,54.70
2023-02-14T22:19:18.622Z,52.97
2023-02-14T22:21:45.334Z,51.17
2023-02-14T22:24:13.449Z,53.63
2023-02-14T22:26:43.045Z,57.40
2023-02-14T22:29:11.651Z,56.77
2023-02-14T22:31:40.992Z,54.77
2023-02-14T22:34:08.869Z,58.13
2023-02-14T22:36:35.387Z,68.87
2023-02-14T22:39:02.314Z,72.90
2023-02-14T22:41:29.021Z,63.60
2023-02-14T22:43:56.415Z,52.13
2023-02-14T22:46:28.031Z,52.77
2023-02-14T22:48:57.083Z,48.80
2023-02-14T22:51:26.632Z,65.47
2023-02-14T22:53:59.997Z,50.90
2023-02-14T22:56:28.951Z,48.13
2023-02-14T22:58:57.512Z,50.83
2023-02-14T23:01:25.101Z,50.87
2023-02-14T23:03:55.868Z,49.63
2023-02-14T23:06:23.937Z,47.50
2023-02-14T23:08:50.872Z,54.03
2023-02-14T23:11:22.527Z,61.90
2023-02-14T23:14:07.648Z,54.87
2023-02-14T23:16:53.181Z,54.37
2023-02-14T23:19:40.857Z,58.63
2023-02-14T23:22:12.577Z,54.53
2023-02-14T23:24:39.656Z,52.33
2023-02-14T23:27:07.684Z,46.60
2023-02-14T23:29:34.504Z,54.30
2023-02-14T23:32:01.018Z,52.70
2023-02-14T23:34:29.538Z,54.57
2023-02-14T23:36:56.203Z,45.20
2023-02-14T23:39:23.000Z,48.87
2023-02-14T23:41:49.898Z,47.07
2023-02-14T23:44:24.823Z,68.33
2023-02-14T23:46:53.399Z,57.37
2023-02-14T23:49:20.202Z,49.40
2023-02-14T23:51:47.936Z,183.20
2023-02-14T23:54:14.928Z,52.83
2023-02-14T23:56:41.755Z,53.83
2023-02-14T23:59:08.541Z,92.10
